X  Close Metar Aviation Weather Data     KSJC Norman Y. Mineta San Jose International Airport
Temperature
61°F Temperature
16°F Dewpoint
17% Humidity



Wind
9 MPH
14 KM/H
4 M/S
8 KTS



320°
NW
Current Conditions

Partly Cloudy Partly Cloudy
Pressure 1015.62 (hPa) - 29.99 (inHg)
Visibility 9.9 (mile) - 16 (km)
Airport
Airport-code KSJC

Location: Norman Y. Mineta San Jose International Airport
Distance: 14 (mi)

Metar:
KSJC 200153Z 32008KT 10SM FEW050 16/M09 A2999 RMK AO2 SLP154 T01561089

Time: 19-01-2021 5:53 pm PST